Overview Statistics Trail Chart Weather Telemetry Raw packets
 

This is the latest recevied weather packets stored in our database for station/object LRTR. If no packets are shown the sender has not sent any weather packets the latest 10 day(s).

<< 33 34 35 36 37 38 39 >>
Time Temp. Humidity Pressure Rain* Wind** Luminosity Snow
1776935886 13.89° C 41% 1017 hPa - - - -
1776934986 13.89° C 41% 1017 hPa - - - -
1776934085 12.22° C 51% 1018 hPa - - - -
1776933185 12.22° C 51% 1018 hPa - - - -
1776932290 11.11° C 58% 1018 hPa - - - -
1776931385 11.11° C 58% 1018 hPa - - - -
1776930494 10° C 62% 1018 hPa - - - -
1776929585 10° C 62% 1018 hPa - - - -
1776928685 7.78° C 66% 1018 hPa - - - -
1776927785 7.78° C 66% 1018 hPa - - - -
1776926898 7.22° C 71% 1018 hPa - - - -
1776925986 7.22° C 71% 1018 hPa - - - -
1776925086 5° C 81% 1018 hPa - - - -
1776924185 5° C 81% 1018 hPa - - - -
1776923285 2.78° C 87% 1018 hPa - - - -
1776922385 2.78° C 87% 1018 hPa - - - -
1776921485 2.22° C 93% 1018 hPa - - - -
1776920585 2.22° C 93% 1018 hPa - - - -
1776919685 0° C 100% 1018 hPa - - - -
1776918786 0° C 100% 1018 hPa - - - -
1776917885 -1.11° C 100% 1018 hPa - - - -
1776916985 -1.11° C 100% 1018 hPa - - - -
1776916085 0° C 93% 1018 hPa - - - -
1776915185 0° C 93% 1018 hPa - - - -
1776914285 0° C 93% 1018 hPa - - - -

* Rain since midnight (hover to see other rain measurements)
** Current wind speed in m/s (hover to see current wind gust speed)